sensor_id;sensor_type;location;lat;lon;timestamp;P1;durP1;ratioP1;P2;durP2;ratioP2
30303;SDS011;17112;48.636;10.152;2022-11-21T00:00:25;2.88;;;1.23;;
30303;SDS011;17112;48.636;10.152;2022-11-21T00:02:51;1.92;;;1.17;;
30303;SDS011;17112;48.636;10.152;2022-11-21T00:05:17;1.20;;;1.02;;
30303;SDS011;17112;48.636;10.152;2022-11-21T00:07:42;2.75;;;1.00;;
30303;SDS011;17112;48.636;10.152;2022-11-21T00:10:11;1.63;;;1.02;;
30303;SDS011;17112;48.636;10.152;2022-11-21T00:12:37;3.75;;;1.55;;
30303;SDS011;17112;48.636;10.152;2022-11-21T00:15:04;2.38;;;1.20;;
30303;SDS011;17112;48.636;10.152;2022-11-21T00:17:32;1.55;;;1.10;;
30303;SDS011;17112;48.636;10.152;2022-11-21T00:19:57;0.98;;;0.98;;
30303;SDS011;17112;48.636;10.152;2022-11-21T00:22:23;1.52;;;1.08;;
30303;SDS011;17112;48.636;10.152;2022-11-21T00:24:48;1.33;;;1.00;;
30303;SDS011;17112;48.636;10.152;2022-11-21T00:27:14;1.52;;;1.00;;
30303;SDS011;17112;48.636;10.152;2022-11-21T00:29:40;1.15;;;0.98;;
30303;SDS011;17112;48.636;10.152;2022-11-21T00:32:05;2.15;;;1.08;;
30303;SDS011;17112;48.636;10.152;2022-11-21T00:34:31;1.88;;;1.20;;
30303;SDS011;17112;48.636;10.152;2022-11-21T00:36:57;1.05;;;1.05;;
30303;SDS011;17112;48.636;10.152;2022-11-21T00:39:22;1.33;;;0.90;;
30303;SDS011;17112;48.636;10.152;2022-11-21T00:41:48;1.10;;;1.10;;
30303;SDS011;17112;48.636;10.152;2022-11-21T00:44:14;1.00;;;0.98;;
30303;SDS011;17112;48.636;10.152;2022-11-21T00:46:39;1.95;;;1.10;;
30303;SDS011;17112;48.636;10.152;2022-11-21T00:49:05;1.20;;;1.10;;
30303;SDS011;17112;48.636;10.152;2022-11-21T00:51:31;1.00;;;1.00;;
30303;SDS011;17112;48.636;10.152;2022-11-21T00:53:56;1.10;;;1.00;;
30303;SDS011;17112;48.636;10.152;2022-11-21T00:56:22;1.02;;;0.98;;
30303;SDS011;17112;48.636;10.152;2022-11-21T00:58:47;2.47;;;1.00;;
30303;SDS011;17112;48.636;10.152;2022-11-21T01:01:14;2.13;;;1.20;;
30303;SDS011;17112;48.636;10.152;2022-11-21T01:03:40;3.28;;;1.02;;
30303;SDS011;17112;48.636;10.152;2022-11-21T01:06:10;1.58;;;1.08;;
30303;SDS011;17112;48.636;10.152;2022-11-21T01:08:39;1.10;;;1.00;;
30303;SDS011;17112;48.636;10.152;2022-11-21T01:11:07;1.70;;;0.90;;
30303;SDS011;17112;48.636;10.152;2022-11-21T01:13:34;1.55;;;1.10;;
30303;SDS011;17112;48.636;10.152;2022-11-21T01:16:01;3.05;;;1.40;;
30303;SDS011;17112;48.636;10.152;2022-11-21T01:18:28;1.63;;;1.20;;
30303;SDS011;17112;48.636;10.152;2022-11-21T01:20:57;0.90;;;0.90;;
30303;SDS011;17112;48.636;10.152;2022-11-21T01:23:24;1.17;;;0.93;;
30303;SDS011;17112;48.636;10.152;2022-11-21T01:25:51;0.90;;;0.90;;
30303;SDS011;17112;48.636;10.152;2022-11-21T01:28:18;1.02;;;0.90;;
30303;SDS011;17112;48.636;10.152;2022-11-21T01:30:44;1.20;;;1.10;;
30303;SDS011;17112;48.636;10.152;2022-11-21T01:33:09;1.20;;;1.10;;
30303;SDS011;17112;48.636;10.152;2022-11-21T01:35:35;2.10;;;1.10;;
30303;SDS011;17112;48.636;10.152;2022-11-21T01:38:01;0.90;;;0.90;;
30303;SDS011;17112;48.636;10.152;2022-11-21T01:40:26;1.45;;;1.13;;
30303;SDS011;17112;48.636;10.152;2022-11-21T01:42:53;1.88;;;1.20;;
30303;SDS011;17112;48.636;10.152;2022-11-21T01:48:40;2.95;;;1.10;;
30303;SDS011;17112;48.636;10.152;2022-11-21T01:51:30;1.75;;;0.90;;
30303;SDS011;17112;48.636;10.152;2022-11-21T01:54:19;1.17;;;1.00;;
30303;SDS011;17112;48.636;10.152;2022-11-21T01:57:00;1.83;;;1.10;;
30303;SDS011;17112;48.636;10.152;2022-11-21T02:02:11;2.13;;;1.10;;
30303;SDS011;17112;48.636;10.152;2022-11-21T02:04:39;2.25;;;1.30;;
30303;SDS011;17112;48.636;10.152;2022-11-21T02:07:07;2.97;;;1.17;;
30303;SDS011;17112;48.636;10.152;2022-11-21T02:09:35;2.60;;;1.00;;
30303;SDS011;17112;48.636;10.152;2022-11-21T02:12:07;1.92;;;1.27;;
30303;SDS011;17112;48.636;10.152;2022-11-21T02:14:37;1.77;;;1.15;;
30303;SDS011;17112;48.636;10.152;2022-11-21T02:17:05;3.22;;;1.15;;
30303;SDS011;17112;48.636;10.152;2022-11-21T02:19:48;1.55;;;0.90;;
30303;SDS011;17112;48.636;10.152;2022-11-21T02:25:23;0.93;;;0.90;;
30303;SDS011;17112;48.636;10.152;2022-11-21T02:27:53;2.53;;;1.05;;
30303;SDS011;17112;48.636;10.152;2022-11-21T02:30:21;3.50;;;1.30;;
30303;SDS011;17112;48.636;10.152;2022-11-21T02:32:47;1.48;;;1.30;;
30303;SDS011;17112;48.636;10.152;2022-11-21T02:35:14;1.75;;;1.10;;
30303;SDS011;17112;48.636;10.152;2022-11-21T02:37:42;1.25;;;1.10;;
30303;SDS011;17112;48.636;10.152;2022-11-21T02:40:16;2.50;;;1.17;;
30303;SDS011;17112;48.636;10.152;2022-11-21T02:45:39;3.25;;;1.20;;
30303;SDS011;17112;48.636;10.152;2022-11-21T02:48:05;4.25;;;1.30;;
30303;SDS011;17112;48.636;10.152;2022-11-21T02:50:33;3.38;;;1.70;;
30303;SDS011;17112;48.636;10.152;2022-11-21T02:53:01;1.67;;;1.23;;
30303;SDS011;17112;48.636;10.152;2022-11-21T02:55:27;2.53;;;1.33;;
30303;SDS011;17112;48.636;10.152;2022-11-21T02:57:53;4.25;;;1.40;;
30303;SDS011;17112;48.636;10.152;2022-11-21T03:00:19;3.50;;;1.50;;
30303;SDS011;17112;48.636;10.152;2022-11-21T03:02:45;1.85;;;1.23;;
30303;SDS011;17112;48.636;10.152;2022-11-21T03:05:12;3.53;;;1.40;;
30303;SDS011;17112;48.636;10.152;2022-11-21T03:07:39;3.13;;;1.25;;
30303;SDS011;17112;48.636;10.152;2022-11-21T03:10:06;4.30;;;1.70;;
30303;SDS011;17112;48.636;10.152;2022-11-21T03:12:36;1.75;;;1.25;;
30303;SDS011;17112;48.636;10.152;2022-11-21T03:15:06;3.15;;;2.00;;
30303;SDS011;17112;48.636;10.152;2022-11-21T03:17:33;5.50;;;1.88;;
30303;SDS011;17112;48.636;10.152;2022-11-21T03:19:59;2.80;;;1.38;;
30303;SDS011;17112;48.636;10.152;2022-11-21T03:22:25;1.92;;;1.27;;
30303;SDS011;17112;48.636;10.152;2022-11-21T03:24:51;1.42;;;1.30;;
30303;SDS011;17112;48.636;10.152;2022-11-21T03:27:17;2.65;;;1.10;;
30303;SDS011;17112;48.636;10.152;2022-11-21T03:29:43;4.07;;;1.20;;
30303;SDS011;17112;48.636;10.152;2022-11-21T03:32:08;2.15;;;1.27;;
30303;SDS011;17112;48.636;10.152;2022-11-21T03:34:34;2.08;;;1.10;;
30303;SDS011;17112;48.636;10.152;2022-11-21T03:37:00;2.42;;;1.10;;
30303;SDS011;17112;48.636;10.152;2022-11-21T03:39:26;2.38;;;1.10;;
30303;SDS011;17112;48.636;10.152;2022-11-21T03:41:53;2.60;;;1.08;;
30303;SDS011;17112;48.636;10.152;2022-11-21T03:44:18;3.85;;;1.10;;
30303;SDS011;17112;48.636;10.152;2022-11-21T03:46:44;1.15;;;0.85;;
30303;SDS011;17112;48.636;10.152;2022-11-21T03:49:10;2.47;;;1.20;;
30303;SDS011;17112;48.636;10.152;2022-11-21T03:51:37;3.83;;;1.30;;
30303;SDS011;17112;48.636;10.152;2022-11-21T03:54:03;2.25;;;1.00;;
30303;SDS011;17112;48.636;10.152;2022-11-21T03:56:29;1.85;;;1.20;;
30303;SDS011;17112;48.636;10.152;2022-11-21T03:58:55;2.05;;;1.00;;
30303;SDS011;17112;48.636;10.152;2022-11-21T04:01:22;1.30;;;1.10;;
30303;SDS011;17112;48.636;10.152;2022-11-21T04:03:49;1.50;;;1.05;;
30303;SDS011;17112;48.636;10.152;2022-11-21T04:06:16;1.33;;;1.10;;
30303;SDS011;17112;48.636;10.152;2022-11-21T04:08:43;1.20;;;1.05;;
30303;SDS011;17112;48.636;10.152;2022-11-21T04:11:09;3.90;;;1.27;;
30303;SDS011;17112;48.636;10.152;2022-11-21T04:13:35;1.45;;;0.98;;
30303;SDS011;17112;48.636;10.152;2022-11-21T04:16:01;1.20;;;1.10;;
30303;SDS011;17112;48.636;10.152;2022-11-21T04:18:27;1.40;;;1.10;;
30303;SDS011;17112;48.636;10.152;2022-11-21T04:21:02;1.35;;;1.10;;
30303;SDS011;17112;48.636;10.152;2022-11-21T04:23:30;1.30;;;1.05;;
30303;SDS011;17112;48.636;10.152;2022-11-21T04:25:56;1.38;;;1.00;;
30303;SDS011;17112;48.636;10.152;2022-11-21T04:28:21;1.10;;;0.95;;
30303;SDS011;17112;48.636;10.152;2022-11-21T04:30:47;1.83;;;1.10;;
30303;SDS011;17112;48.636;10.152;2022-11-21T04:33:13;6.72;;;1.00;;
30303;SDS011;17112;48.636;10.152;2022-11-21T04:35:43;1.40;;;0.98;;
30303;SDS011;17112;48.636;10.152;2022-11-21T04:38:10;2.10;;;1.00;;
30303;SDS011;17112;48.636;10.152;2022-11-21T04:40:36;2.78;;;1.10;;
30303;SDS011;17112;48.636;10.152;2022-11-21T04:43:02;1.40;;;1.00;;
30303;SDS011;17112;48.636;10.152;2022-11-21T04:45:28;1.42;;;1.10;;
30303;SDS011;17112;48.636;10.152;2022-11-21T04:47:54;1.88;;;1.10;;
30303;SDS011;17112;48.636;10.152;2022-11-21T04:50:20;1.77;;;0.98;;
30303;SDS011;17112;48.636;10.152;2022-11-21T04:52:54;2.63;;;1.35;;
30303;SDS011;17112;48.636;10.152;2022-11-21T04:55:21;1.17;;;1.08;;
30303;SDS011;17112;48.636;10.152;2022-11-21T04:57:48;3.83;;;1.08;;
30303;SDS011;17112;48.636;10.152;2022-11-21T05:00:14;2.28;;;1.20;;
30303;SDS011;17112;48.636;10.152;2022-11-21T05:02:41;1.58;;;1.30;;
30303;SDS011;17112;48.636;10.152;2022-11-21T05:05:07;3.60;;;1.10;;
30303;SDS011;17112;48.636;10.152;2022-11-21T05:07:33;1.63;;;1.20;;
30303;SDS011;17112;48.636;10.152;2022-11-21T05:09:58;2.40;;;1.20;;
30303;SDS011;17112;48.636;10.152;2022-11-21T05:12:24;1.48;;;1.35;;
30303;SDS011;17112;48.636;10.152;2022-11-21T05:15:08;2.60;;;1.35;;
30303;SDS011;17112;48.636;10.152;2022-11-21T05:17:34;2.25;;;1.60;;
30303;SDS011;17112;48.636;10.152;2022-11-21T05:20:00;1.23;;;1.13;;
30303;SDS011;17112;48.636;10.152;2022-11-21T05:22:26;4.53;;;1.67;;
30303;SDS011;17112;48.636;10.152;2022-11-21T05:24:52;8.23;;;3.78;;
30303;SDS011;17112;48.636;10.152;2022-11-21T05:27:17;3.05;;;1.80;;
30303;SDS011;17112;48.636;10.152;2022-11-21T05:29:43;3.10;;;1.60;;
30303;SDS011;17112;48.636;10.152;2022-11-21T05:32:09;2.65;;;1.40;;
30303;SDS011;17112;48.636;10.152;2022-11-21T05:34:35;1.90;;;1.27;;
30303;SDS011;17112;48.636;10.152;2022-11-21T05:37:00;2.95;;;1.60;;
30303;SDS011;17112;48.636;10.152;2022-11-21T05:39:26;2.95;;;1.70;;
30303;SDS011;17112;48.636;10.152;2022-11-21T05:41:52;7.28;;;2.95;;
30303;SDS011;17112;48.636;10.152;2022-11-21T05:44:18;3.92;;;2.53;;
30303;SDS011;17112;48.636;10.152;2022-11-21T05:46:44;3.08;;;1.90;;
30303;SDS011;17112;48.636;10.152;2022-11-21T05:49:10;3.60;;;1.98;;
30303;SDS011;17112;48.636;10.152;2022-11-21T05:51:36;5.22;;;2.35;;
30303;SDS011;17112;48.636;10.152;2022-11-21T05:54:02;3.13;;;2.20;;
30303;SDS011;17112;48.636;10.152;2022-11-21T05:56:28;2.47;;;1.95;;
30303;SDS011;17112;48.636;10.152;2022-11-21T05:58:54;3.20;;;1.65;;
30303;SDS011;17112;48.636;10.152;2022-11-21T06:01:21;2.47;;;1.35;;
30303;SDS011;17112;48.636;10.152;2022-11-21T06:04:06;2.20;;;1.40;;
30303;SDS011;17112;48.636;10.152;2022-11-21T06:06:33;3.38;;;2.80;;
30303;SDS011;17112;48.636;10.152;2022-11-21T06:08:58;3.47;;;2.05;;
30303;SDS011;17112;48.636;10.152;2022-11-21T06:11:24;5.68;;;2.53;;
30303;SDS011;17112;48.636;10.152;2022-11-21T06:13:53;4.03;;;2.90;;
30303;SDS011;17112;48.636;10.152;2022-11-21T06:16:19;3.65;;;2.65;;
30303;SDS011;17112;48.636;10.152;2022-11-21T06:18:49;6.55;;;2.90;;
30303;SDS011;17112;48.636;10.152;2022-11-21T06:21:19;3.03;;;2.03;;
30303;SDS011;17112;48.636;10.152;2022-11-21T06:23:47;2.75;;;1.80;;
30303;SDS011;17112;48.636;10.152;2022-11-21T06:26:16;4.53;;;1.70;;
30303;SDS011;17112;48.636;10.152;2022-11-21T06:28:44;3.22;;;1.67;;
30303;SDS011;17112;48.636;10.152;2022-11-21T06:31:14;3.55;;;1.92;;
30303;SDS011;17112;48.636;10.152;2022-11-21T06:33:40;3.00;;;1.60;;
30303;SDS011;17112;48.636;10.152;2022-11-21T06:36:07;2.15;;;1.50;;
30303;SDS011;17112;48.636;10.152;2022-11-21T06:38:37;2.38;;;1.30;;
30303;SDS011;17112;48.636;10.152;2022-11-21T06:41:05;2.58;;;1.17;;
30303;SDS011;17112;48.636;10.152;2022-11-21T06:43:35;1.30;;;1.10;;
30303;SDS011;17112;48.636;10.152;2022-11-21T06:46:01;2.10;;;1.80;;
30303;SDS011;17112;48.636;10.152;2022-11-21T06:48:30;3.35;;;1.50;;
30303;SDS011;17112;48.636;10.152;2022-11-21T06:50:56;1.45;;;1.35;;
30303;SDS011;17112;48.636;10.152;2022-11-21T06:53:22;5.82;;;1.52;;
30303;SDS011;17112;48.636;10.152;2022-11-21T06:55:48;3.88;;;1.30;;
30303;SDS011;17112;48.636;10.152;2022-11-21T06:58:14;2.13;;;1.30;;
30303;SDS011;17112;48.636;10.152;2022-11-21T07:00:39;3.00;;;1.10;;
30303;SDS011;17112;48.636;10.152;2022-11-21T07:03:05;3.38;;;1.15;;
30303;SDS011;17112;48.636;10.152;2022-11-21T07:05:31;2.65;;;1.20;;
30303;SDS011;17112;48.636;10.152;2022-11-21T07:08:00;2.47;;;1.30;;
30303;SDS011;17112;48.636;10.152;2022-11-21T07:10:28;5.38;;;1.42;;
30303;SDS011;17112;48.636;10.152;2022-11-21T07:13:01;2.70;;;1.17;;
30303;SDS011;17112;48.636;10.152;2022-11-21T07:15:45;1.58;;;1.17;;
30303;SDS011;17112;48.636;10.152;2022-11-21T07:18:12;3.67;;;1.48;;
30303;SDS011;17112;48.636;10.152;2022-11-21T07:20:39;3.42;;;1.20;;
30303;SDS011;17112;48.636;10.152;2022-11-21T07:23:05;3.40;;;1.40;;
30303;SDS011;17112;48.636;10.152;2022-11-21T07:25:32;2.20;;;1.20;;
30303;SDS011;17112;48.636;10.152;2022-11-21T07:27:58;2.03;;;1.10;;
30303;SDS011;17112;48.636;10.152;2022-11-21T07:30:24;4.63;;;1.35;;
30303;SDS011;17112;48.636;10.152;2022-11-21T07:33:00;3.03;;;1.40;;
30303;SDS011;17112;48.636;10.152;2022-11-21T07:35:27;1.70;;;1.10;;
30303;SDS011;17112;48.636;10.152;2022-11-21T07:37:53;3.30;;;1.63;;
30303;SDS011;17112;48.636;10.152;2022-11-21T07:40:19;4.28;;;1.27;;
30303;SDS011;17112;48.636;10.152;2022-11-21T07:42:45;3.03;;;1.15;;
30303;SDS011;17112;48.636;10.152;2022-11-21T07:45:11;3.63;;;1.15;;
30303;SDS011;17112;48.636;10.152;2022-11-21T07:47:39;2.53;;;0.90;;
30303;SDS011;17112;48.636;10.152;2022-11-21T07:50:05;3.22;;;1.20;;
30303;SDS011;17112;48.636;10.152;2022-11-21T07:52:32;3.72;;;1.40;;
30303;SDS011;17112;48.636;10.152;2022-11-21T07:54:58;3.15;;;1.33;;
30303;SDS011;17112;48.636;10.152;2022-11-21T07:57:26;3.97;;;1.42;;
30303;SDS011;17112;48.636;10.152;2022-11-21T07:59:52;1.80;;;1.17;;
30303;SDS011;17112;48.636;10.152;2022-11-21T08:02:18;2.83;;;1.38;;
30303;SDS011;17112;48.636;10.152;2022-11-21T08:04:46;5.30;;;1.40;;
30303;SDS011;17112;48.636;10.152;2022-11-21T08:07:12;2.97;;;1.42;;
30303;SDS011;17112;48.636;10.152;2022-11-21T08:09:38;3.72;;;1.13;;
30303;SDS011;17112;48.636;10.152;2022-11-21T08:12:04;2.38;;;1.10;;
30303;SDS011;17112;48.636;10.152;2022-11-21T08:14:30;1.75;;;1.13;;
30303;SDS011;17112;48.636;10.152;2022-11-21T08:16:56;3.15;;;1.00;;
30303;SDS011;17112;48.636;10.152;2022-11-21T08:19:22;2.70;;;1.13;;
30303;SDS011;17112;48.636;10.152;2022-11-21T08:21:48;2.75;;;1.20;;
30303;SDS011;17112;48.636;10.152;2022-11-21T08:24:13;3.00;;;1.10;;
30303;SDS011;17112;48.636;10.152;2022-11-21T08:26:41;0.80;;;0.70;;
30303;SDS011;17112;48.636;10.152;2022-11-21T08:29:08;1.13;;;1.05;;
30303;SDS011;17112;48.636;10.152;2022-11-21T08:31:35;1.05;;;1.00;;
30303;SDS011;17112;48.636;10.152;2022-11-21T08:34:01;3.28;;;1.00;;
30303;SDS011;17112;48.636;10.152;2022-11-21T08:36:27;2.78;;;1.50;;
30303;SDS011;17112;48.636;10.152;2022-11-21T08:38:53;2.55;;;1.52;;
30303;SDS011;17112;48.636;10.152;2022-11-21T08:41:18;2.83;;;1.33;;
30303;SDS011;17112;48.636;10.152;2022-11-21T08:44:04;4.40;;;1.38;;
30303;SDS011;17112;48.636;10.152;2022-11-21T08:46:34;6.95;;;1.55;;
30303;SDS011;17112;48.636;10.152;2022-11-21T08:49:04;3.17;;;1.60;;
30303;SDS011;17112;48.636;10.152;2022-11-21T08:51:31;3.33;;;1.77;;
30303;SDS011;17112;48.636;10.152;2022-11-21T08:53:57;4.22;;;2.10;;
30303;SDS011;17112;48.636;10.152;2022-11-21T08:56:24;5.97;;;1.98;;
30303;SDS011;17112;48.636;10.152;2022-11-21T08:58:50;4.90;;;1.75;;
30303;SDS011;17112;48.636;10.152;2022-11-21T09:01:16;3.28;;;1.63;;
30303;SDS011;17112;48.636;10.152;2022-11-21T09:03:42;2.50;;;1.52;;
30303;SDS011;17112;48.636;10.152;2022-11-21T09:06:08;2.88;;;1.80;;
30303;SDS011;17112;48.636;10.152;2022-11-21T09:08:34;2.40;;;1.27;;
30303;SDS011;17112;48.636;10.152;2022-11-21T09:11:07;2.05;;;1.40;;
30303;SDS011;17112;48.636;10.152;2022-11-21T09:13:34;3.45;;;1.42;;
30303;SDS011;17112;48.636;10.152;2022-11-21T09:16:00;4.07;;;1.70;;
30303;SDS011;17112;48.636;10.152;2022-11-21T09:18:45;3.08;;;1.45;;
30303;SDS011;17112;48.636;10.152;2022-11-21T09:21:15;5.03;;;1.50;;
30303;SDS011;17112;48.636;10.152;2022-11-21T09:23:41;3.50;;;1.58;;
30303;SDS011;17112;48.636;10.152;2022-11-21T09:26:07;6.45;;;1.50;;
30303;SDS011;17112;48.636;10.152;2022-11-21T09:28:33;3.97;;;2.00;;
30303;SDS011;17112;48.636;10.152;2022-11-21T09:31:03;3.65;;;1.80;;
30303;SDS011;17112;48.636;10.152;2022-11-21T09:33:29;3.47;;;1.60;;
30303;SDS011;17112;48.636;10.152;2022-11-21T09:35:58;4.55;;;1.92;;
30303;SDS011;17112;48.636;10.152;2022-11-21T09:38:24;4.78;;;2.10;;
30303;SDS011;17112;48.636;10.152;2022-11-21T09:40:51;5.82;;;1.90;;
30303;SDS011;17112;48.636;10.152;2022-11-21T09:43:52;2.15;;;1.30;;
30303;SDS011;17112;48.636;10.152;2022-11-21T09:46:46;4.05;;;1.50;;
30303;SDS011;17112;48.636;10.152;2022-11-21T09:49:13;3.33;;;1.52;;
30303;SDS011;17112;48.636;10.152;2022-11-21T09:51:40;3.70;;;1.42;;
30303;SDS011;17112;48.636;10.152;2022-11-21T09:54:15;3.58;;;2.67;;
30303;SDS011;17112;48.636;10.152;2022-11-21T09:56:46;6.28;;;2.05;;
30303;SDS011;17112;48.636;10.152;2022-11-21T10:02:01;3.65;;;1.63;;
30303;SDS011;17112;48.636;10.152;2022-11-21T10:04:34;3.08;;;1.50;;
30303;SDS011;17112;48.636;10.152;2022-11-21T10:07:04;3.40;;;1.65;;
30303;SDS011;17112;48.636;10.152;2022-11-21T10:18:35;2.97;;;1.30;;
30303;SDS011;17112;48.636;10.152;2022-11-21T10:21:27;2.47;;;1.08;;
30303;SDS011;17112;48.636;10.152;2022-11-21T10:26:46;5.45;;;1.35;;
30303;SDS011;17112;48.636;10.152;2022-11-21T10:29:37;6.40;;;1.40;;
30303;SDS011;17112;48.636;10.152;2022-11-21T10:32:39;4.32;;;1.70;;
30303;SDS011;17112;48.636;10.152;2022-11-21T10:35:06;7.05;;;1.23;;
30303;SDS011;17112;48.636;10.152;2022-11-21T10:37:51;4.53;;;1.60;;
30303;SDS011;17112;48.636;10.152;2022-11-21T10:40:37;9.57;;;1.67;;
30303;SDS011;17112;48.636;10.152;2022-11-21T10:46:28;3.90;;;1.42;;
30303;SDS011;17112;48.636;10.152;2022-11-21T10:49:01;7.20;;;1.63;;
30303;SDS011;17112;48.636;10.152;2022-11-21T10:54:20;7.28;;;1.50;;
30303;SDS011;17112;48.636;10.152;2022-11-21T10:57:05;6.18;;;1.40;;
30303;SDS011;17112;48.636;10.152;2022-11-21T10:59:54;2.88;;;1.20;;
30303;SDS011;17112;48.636;10.152;2022-11-21T11:02:24;2.80;;;1.10;;
30303;SDS011;17112;48.636;10.152;2022-11-21T11:05:16;8.23;;;1.85;;
30303;SDS011;17112;48.636;10.152;2022-11-21T11:08:00;6.95;;;1.42;;
30303;SDS011;17112;48.636;10.152;2022-11-21T11:10:30;4.47;;;1.58;;
30303;SDS011;17112;48.636;10.152;2022-11-21T11:12:57;3.53;;;1.33;;
30303;SDS011;17112;48.636;10.152;2022-11-21T11:18:46;7.13;;;1.50;;
30303;SDS011;17112;48.636;10.152;2022-11-21T11:26:49;4.68;;;1.25;;
30303;SDS011;17112;48.636;10.152;2022-11-21T11:29:26;4.70;;;1.10;;
30303;SDS011;17112;48.636;10.152;2022-11-21T11:31:59;6.10;;;1.15;;
30303;SDS011;17112;48.636;10.152;2022-11-21T11:37:27;4.35;;;1.00;;
30303;SDS011;17112;48.636;10.152;2022-11-21T11:48:57;3.28;;;1.42;;
30303;SDS011;17112;48.636;10.152;2022-11-21T11:51:29;5.93;;;1.33;;
30303;SDS011;17112;48.636;10.152;2022-11-21T11:54:12;6.68;;;1.58;;
30303;SDS011;17112;48.636;10.152;2022-11-21T11:56:42;7.03;;;1.40;;
30303;SDS011;17112;48.636;10.152;2022-11-21T11:59:17;4.75;;;1.27;;
30303;SDS011;17112;48.636;10.152;2022-11-21T12:04:47;2.25;;;1.33;;
30303;SDS011;17112;48.636;10.152;2022-11-21T12:07:35;3.80;;;1.10;;
30303;SDS011;17112;48.636;10.152;2022-11-21T12:12:40;6.18;;;1.38;;
30303;SDS011;17112;48.636;10.152;2022-11-21T12:23:27;6.80;;;1.70;;
30303;SDS011;17112;48.636;10.152;2022-11-21T12:26:07;6.15;;;1.33;;
30303;SDS011;17112;48.636;10.152;2022-11-21T12:39:53;3.95;;;1.15;;
30303;SDS011;17112;48.636;10.152;2022-11-21T12:48:27;5.07;;;1.45;;
30303;SDS011;17112;48.636;10.152;2022-11-21T12:57:25;4.18;;;1.35;;
30303;SDS011;17112;48.636;10.152;2022-11-21T13:00:21;2.83;;;1.17;;
30303;SDS011;17112;48.636;10.152;2022-11-21T13:03:18;4.38;;;1.40;;
30303;SDS011;17112;48.636;10.152;2022-11-21T13:05:48;3.28;;;1.35;;
30303;SDS011;17112;48.636;10.152;2022-11-21T13:08:17;7.88;;;1.77;;
30303;SDS011;17112;48.636;10.152;2022-11-21T13:10:51;6.20;;;1.40;;
30303;SDS011;17112;48.636;10.152;2022-11-21T13:13:56;4.13;;;1.20;;
30303;SDS011;17112;48.636;10.152;2022-11-21T13:16:31;6.75;;;1.50;;
30303;SDS011;17112;48.636;10.152;2022-11-21T13:21:49;5.40;;;1.40;;
30303;SDS011;17112;48.636;10.152;2022-11-21T13:27:25;14.88;;;5.95;;
30303;SDS011;17112;48.636;10.152;2022-11-21T13:30:38;5.53;;;2.83;;
30303;SDS011;17112;48.636;10.152;2022-11-21T13:32:53;10.23;;;3.97;;
30303;SDS011;17112;48.636;10.152;2022-11-21T13:45:45;11.50;;;6.50;;
30303;SDS011;17112;48.636;10.152;2022-11-21T14:02:05;6.38;;;4.88;;
30303;SDS011;17112;48.636;10.152;2022-11-21T14:07:21;5.18;;;2.40;;
30303;SDS011;17112;48.636;10.152;2022-11-21T14:09:54;5.07;;;1.90;;
30303;SDS011;17112;48.636;10.152;2022-11-21T14:12:23;4.80;;;1.88;;
30303;SDS011;17112;48.636;10.152;2022-11-21T14:17:44;4.68;;;1.70;;
30303;SDS011;17112;48.636;10.152;2022-11-21T14:20:27;4.07;;;1.88;;
30303;SDS011;17112;48.636;10.152;2022-11-21T14:23:03;4.03;;;1.92;;
30303;SDS011;17112;48.636;10.152;2022-11-21T14:28:05;8.20;;;4.35;;
30303;SDS011;17112;48.636;10.152;2022-11-21T14:30:38;6.60;;;3.33;;
30303;SDS011;17112;48.636;10.152;2022-11-21T14:36:08;5.10;;;2.30;;
30303;SDS011;17112;48.636;10.152;2022-11-21T14:38:54;5.53;;;1.98;;
30303;SDS011;17112;48.636;10.152;2022-11-21T14:44:34;5.78;;;2.35;;
30303;SDS011;17112;48.636;10.152;2022-11-21T14:46:39;5.28;;;2.17;;
30303;SDS011;17112;48.636;10.152;2022-11-21T14:51:56;5.00;;;2.35;;
30303;SDS011;17112;48.636;10.152;2022-11-21T14:54:52;10.05;;;3.40;;
30303;SDS011;17112;48.636;10.152;2022-11-21T14:57:22;10.82;;;4.30;;
30303;SDS011;17112;48.636;10.152;2022-11-21T14:59:49;8.02;;;3.85;;
30303;SDS011;17112;48.636;10.152;2022-11-21T15:02:17;6.38;;;3.50;;
30303;SDS011;17112;48.636;10.152;2022-11-21T15:04:46;7.43;;;3.40;;
30303;SDS011;17112;48.636;10.152;2022-11-21T15:07:23;11.63;;;4.18;;
30303;SDS011;17112;48.636;10.152;2022-11-21T15:09:53;15.55;;;4.10;;
30303;SDS011;17112;48.636;10.152;2022-11-21T15:15:04;14.18;;;3.75;;
30303;SDS011;17112;48.636;10.152;2022-11-21T15:17:52;8.35;;;3.50;;
30303;SDS011;17112;48.636;10.152;2022-11-21T15:20:20;11.05;;;3.80;;
30303;SDS011;17112;48.636;10.152;2022-11-21T15:22:47;6.15;;;3.25;;
30303;SDS011;17112;48.636;10.152;2022-11-21T15:27:44;7.03;;;3.60;;
30303;SDS011;17112;48.636;10.152;2022-11-21T15:30:30;6.97;;;3.17;;
30303;SDS011;17112;48.636;10.152;2022-11-21T15:35:26;12.30;;;3.60;;
30303;SDS011;17112;48.636;10.152;2022-11-21T15:37:52;7.47;;;3.58;;
30303;SDS011;17112;48.636;10.152;2022-11-21T15:40:18;8.75;;;4.03;;
30303;SDS011;17112;48.636;10.152;2022-11-21T15:42:44;13.77;;;5.90;;
30303;SDS011;17112;48.636;10.152;2022-11-21T15:47:38;20.30;;;8.77;;
30303;SDS011;17112;48.636;10.152;2022-11-21T15:50:04;49.17;;;24.05;;
30303;SDS011;17112;48.636;10.152;2022-11-21T15:52:31;36.45;;;18.65;;
30303;SDS011;17112;48.636;10.152;2022-11-21T15:55:25;25.40;;;10.07;;
30303;SDS011;17112;48.636;10.152;2022-11-21T15:57:55;16.10;;;6.75;;
30303;SDS011;17112;48.636;10.152;2022-11-21T16:00:21;30.55;;;12.60;;
30303;SDS011;17112;48.636;10.152;2022-11-21T16:02:47;26.20;;;12.30;;
30303;SDS011;17112;48.636;10.152;2022-11-21T16:05:13;24.45;;;11.35;;
30303;SDS011;17112;48.636;10.152;2022-11-21T16:07:39;17.88;;;9.55;;
30303;SDS011;17112;48.636;10.152;2022-11-21T16:10:05;15.45;;;7.63;;
30303;SDS011;17112;48.636;10.152;2022-11-21T16:12:32;12.70;;;5.80;;
30303;SDS011;17112;48.636;10.152;2022-11-21T16:14:57;9.00;;;5.45;;
30303;SDS011;17112;48.636;10.152;2022-11-21T16:17:23;13.82;;;5.97;;
30303;SDS011;17112;48.636;10.152;2022-11-21T16:19:49;8.57;;;4.82;;
30303;SDS011;17112;48.636;10.152;2022-11-21T16:22:14;10.70;;;6.10;;
30303;SDS011;17112;48.636;10.152;2022-11-21T16:24:40;17.23;;;6.30;;
30303;SDS011;17112;48.636;10.152;2022-11-21T16:27:06;16.10;;;7.80;;
30303;SDS011;17112;48.636;10.152;2022-11-21T16:29:32;12.05;;;7.10;;
30303;SDS011;17112;48.636;10.152;2022-11-21T16:31:57;13.95;;;8.05;;
30303;SDS011;17112;48.636;10.152;2022-11-21T16:34:24;13.88;;;8.07;;
30303;SDS011;17112;48.636;10.152;2022-11-21T16:36:51;14.00;;;7.50;;
30303;SDS011;17112;48.636;10.152;2022-11-21T16:39:18;12.60;;;7.88;;
30303;SDS011;17112;48.636;10.152;2022-11-21T16:41:44;14.18;;;7.47;;
30303;SDS011;17112;48.636;10.152;2022-11-21T16:44:11;16.10;;;8.65;;
30303;SDS011;17112;48.636;10.152;2022-11-21T16:46:42;17.88;;;9.38;;
30303;SDS011;17112;48.636;10.152;2022-11-21T16:49:11;14.85;;;7.85;;
30303;SDS011;17112;48.636;10.152;2022-11-21T16:51:36;14.80;;;6.82;;
30303;SDS011;17112;48.636;10.152;2022-11-21T16:54:02;21.10;;;6.70;;
30303;SDS011;17112;48.636;10.152;2022-11-21T16:56:28;16.13;;;7.10;;
30303;SDS011;17112;48.636;10.152;2022-11-21T16:58:54;16.27;;;7.18;;
30303;SDS011;17112;48.636;10.152;2022-11-21T17:01:21;12.38;;;6.40;;
30303;SDS011;17112;48.636;10.152;2022-11-21T17:03:48;16.13;;;7.25;;
30303;SDS011;17112;48.636;10.152;2022-11-21T17:06:17;14.15;;;8.20;;
30303;SDS011;17112;48.636;10.152;2022-11-21T17:08:44;15.38;;;9.02;;
30303;SDS011;17112;48.636;10.152;2022-11-21T17:11:11;16.98;;;9.98;;
30303;SDS011;17112;48.636;10.152;2022-11-21T17:13:37;21.10;;;9.93;;